Time;durP1;ratioP1;P1;durP2;ratioP2;P2;SDS_P1;SDS_P2;PMS_P1;PMS_P2;Temp;Humidity;BMP_temperature;BMP_pressure;BME280_temperature;BME280_humidity;BME280_pressure;Samples;Min_cycle;Max_cycle;Signal;HPM_P1;HPM_P2
2023/10/13 00:00:36;;;;;;;18.23;10.43;;;14.10;99.90;;;;;;5031773;28;20029;-80
2023/10/13 00:03:03;;;;;;;16.95;10.88;;;14.10;99.90;;;;;;5033989;28;20025;-82
2023/10/13 00:05:30;;;;;;;19.27;11.65;;;14.10;99.90;;;;;;5031841;28;20552;-80
2023/10/13 00:08:01;;;;;;;18.30;10.90;;;14.10;99.90;;;;;;5035904;28;20030;-80
2023/10/13 00:10:36;;;;;;;16.33;10.40;;;14.10;99.90;;;;;;5037224;28;20025;-81
2023/10/13 00:13:21;;;;;;;15.02;9.82;;;14.10;99.90;;;;;;5031213;28;20466;-80
2023/10/13 00:15:57;;;;;;;16.52;10.13;;;14.00;99.90;;;;;;5033239;28;20133;-81
2023/10/13 00:18:41;;;;;;;22.38;11.23;;;14.10;99.90;;;;;;5027356;28;20029;-81
2023/10/13 00:21:15;;;;;;;17.98;10.93;;;14.10;99.90;;;;;;5042752;28;20467;-82
2023/10/13 00:23:53;;;;;;;20.60;10.80;;;14.10;99.90;;;;;;5032860;28;20058;-80
2023/10/13 00:26:24;;;;;;;22.70;11.80;;;14.10;99.90;;;;;;5032762;28;20049;-82
2023/10/13 00:29:01;;;;;;;17.95;10.60;;;14.10;99.90;;;;;;5026355;28;20094;-82
2023/10/13 00:31:33;;;;;;;20.52;11.25;;;14.10;99.90;;;;;;5037706;28;20055;-82
2023/10/13 00:34:09;;;;;;;18.92;11.45;;;14.10;99.90;;;;;;5038391;28;20038;-82
2023/10/13 00:36:35;;;;;;;19.45;11.02;;;14.10;99.90;;;;;;5045129;28;20034;-83
2023/10/13 00:39:03;;;;;;;18.88;10.27;;;14.10;99.90;;;;;;5028477;28;20158;-81
2023/10/13 00:41:51;;;;;;;20.67;11.05;;;14.10;99.90;;;;;;5032614;28;20030;-81
2023/10/13 00:44:16;;;;;;;18.60;11.52;;;14.10;99.90;;;;;;5027050;28;20066;-82
2023/10/13 00:46:45;;;;;;;18.38;11.05;;;14.10;99.90;;;;;;5026795;28;20049;-82
2023/10/13 00:49:15;;;;;;;19.85;10.75;;;14.10;99.90;;;;;;5033045;28;20088;-83
2023/10/13 00:51:47;;;;;;;21.10;10.63;;;14.10;99.90;;;;;;5011922;28;20124;-83
2023/10/13 00:54:16;;;;;;;19.83;11.13;;;14.00;99.90;;;;;;5040734;28;20117;-82
2023/10/13 00:56:48;;;;;;;18.08;11.23;;;14.00;99.90;;;;;;5029612;28;20037;-81
2023/10/13 00:59:15;;;;;;;20.13;10.73;;;14.00;99.90;;;;;;5027301;28;20045;-82
2023/10/13 01:01:45;;;;;;;17.73;9.77;;;14.00;99.90;;;;;;5033340;28;20516;-80
2023/10/13 01:04:14;;;;;;;18.23;10.77;;;13.90;99.90;;;;;;5022045;28;20056;-81
2023/10/13 01:06:40;;;;;;;18.23;11.30;;;14.00;99.90;;;;;;5031909;28;20039;-81
2023/10/13 01:09:14;;;;;;;18.02;10.57;;;14.00;99.90;;;;;;5026434;28;20037;-81
2023/10/13 01:11:42;;;;;;;18.35;11.50;;;13.90;99.90;;;;;;5032891;28;20033;-81
2023/10/13 01:14:11;;;;;;;24.23;11.20;;;13.90;99.90;;;;;;5031527;28;20047;-82
2023/10/13 01:16:43;;;;;;;15.13;10.65;;;13.90;99.90;;;;;;5027407;28;20489;-82
2023/10/13 01:19:12;;;;;;;20.67;11.80;;;13.90;99.90;;;;;;5033402;28;20418;-83
2023/10/13 01:21:40;;;;;;;23.40;12.27;;;13.90;99.90;;;;;;5026783;28;20497;-82
2023/10/13 01:24:13;;;;;;;20.38;12.02;;;14.00;99.90;;;;;;5033285;28;20030;-82
2023/10/13 01:26:42;;;;;;;24.30;12.15;;;13.90;99.90;;;;;;5025885;28;20029;-83
2023/10/13 01:29:14;;;;;;;21.15;11.35;;;14.00;99.90;;;;;;5028670;28;20053;-79
2023/10/13 01:31:47;;;;;;;24.33;12.50;;;13.90;99.90;;;;;;5035275;28;20072;-82
2023/10/13 01:34:21;;;;;;;21.27;11.85;;;14.00;99.90;;;;;;5036576;28;20071;-80
2023/10/13 01:36:52;;;;;;;22.13;11.38;;;14.00;99.90;;;;;;5033072;28;20048;-80
2023/10/13 01:39:26;;;;;;;18.83;11.57;;;14.00;99.90;;;;;;5040289;28;20632;-80
2023/10/13 01:41:55;;;;;;;22.95;11.57;;;14.00;99.90;;;;;;5040718;28;20049;-82
2023/10/13 01:44:30;;;;;;;21.45;11.45;;;14.10;99.90;;;;;;5036083;28;20033;-81
2023/10/13 01:47:05;;;;;;;20.63;11.00;;;14.10;99.90;;;;;;5037526;28;20022;-80
2023/10/13 01:49:47;;;;;;;20.20;10.80;;;14.10;99.90;;;;;;5034011;28;20084;-81
2023/10/13 01:52:16;;;;;;;19.35;11.20;;;14.10;99.90;;;;;;5035146;28;20049;-82
2023/10/13 01:54:48;;;;;;;20.58;10.82;;;14.10;99.90;;;;;;5019981;28;20025;-80
2023/10/13 01:57:17;;;;;;;18.13;10.73;;;14.20;99.90;;;;;;5031014;28;20046;-81
2023/10/13 01:59:44;;;;;;;19.92;10.98;;;14.10;99.90;;;;;;5046987;28;20109;-80
2023/10/13 02:02:13;;;;;;;20.40;9.88;;;14.20;99.90;;;;;;5034324;28;20017;-79
2023/10/13 02:04:55;;;;;;;17.80;10.85;;;14.20;99.90;;;;;;5039258;28;20036;-79
2023/10/13 02:07:21;;;;;;;21.13;10.88;;;14.20;99.90;;;;;;5036124;28;20112;-82
2023/10/13 02:09:47;;;;;;;15.57;10.20;;;14.20;99.90;;;;;;5027963;28;20525;-79
2023/10/13 02:12:15;;;;;;;25.23;11.18;;;14.20;99.90;;;;;;5032438;28;20131;-82
2023/10/13 02:14:42;;;;;;;14.93;9.93;;;14.20;99.90;;;;;;5030434;28;20040;-80
2023/10/13 02:17:16;;;;;;;16.25;10.02;;;14.20;99.90;;;;;;5035378;28;20028;-80
2023/10/13 02:19:45;;;;;;;19.40;10.48;;;14.20;99.90;;;;;;5038572;28;20668;-79
2023/10/13 02:22:11;;;;;;;17.83;10.07;;;14.20;99.90;;;;;;5036494;28;20473;-80
2023/10/13 02:24:40;;;;;;;18.50;9.23;;;14.20;99.90;;;;;;5042115;28;20033;-81
2023/10/13 02:27:13;;;;;;;20.27;10.57;;;14.20;99.90;;;;;;5037562;28;20490;-80
2023/10/13 02:29:40;;;;;;;16.42;9.73;;;14.20;99.90;;;;;;5031821;28;20045;-82
2023/10/13 02:32:18;;;;;;;16.50;9.30;;;14.20;99.90;;;;;;5037864;28;20079;-80
2023/10/13 02:35:06;;;;;;;14.88;9.50;;;14.10;99.90;;;;;;5042171;28;20059;-79
2023/10/13 02:37:32;;;;;;;13.93;8.57;;;14.10;99.90;;;;;;5024778;28;20120;-82
2023/10/13 02:39:58;;;;;;;19.45;8.90;;;14.10;99.90;;;;;;5037065;28;20121;-81
2023/10/13 02:42:24;;;;;;;21.90;10.13;;;14.10;99.90;;;;;;5028754;28;20044;-80
2023/10/13 02:45:11;;;;;;;18.05;9.55;;;14.20;99.90;;;;;;5033006;28;20045;-82
2023/10/13 02:47:37;;;;;;;16.33;9.63;;;14.20;99.90;;;;;;5035163;28;20049;-82
2023/10/13 02:50:11;;;;;;;16.80;9.98;;;14.20;99.90;;;;;;5021245;28;20044;-80
2023/10/13 02:52:41;;;;;;;13.43;8.88;;;14.20;99.90;;;;;;5040358;28;20041;-81
2023/10/13 02:55:10;;;;;;;16.90;8.93;;;14.20;99.90;;;;;;5033740;28;20449;-81
2023/10/13 02:57:36;;;;;;;14.85;9.27;;;14.20;99.90;;;;;;5031741;28;20030;-80
2023/10/13 03:00:15;;;;;;;21.00;9.63;;;14.30;99.90;;;;;;5030954;28;20045;-81
2023/10/13 03:02:53;;;;;;;18.38;9.60;;;14.30;99.90;;;;;;5026640;28;20033;-80
2023/10/13 03:05:22;;;;;;;21.05;9.55;;;14.30;99.90;;;;;;5040845;28;20029;-80
2023/10/13 03:07:50;;;;;;;15.18;9.02;;;14.30;99.90;;;;;;5028440;28;20044;-80
2023/10/13 03:10:19;;;;;;;15.95;8.48;;;14.30;99.90;;;;;;5044515;28;20116;-81
2023/10/13 03:12:48;;;;;;;17.20;9.15;;;14.30;99.90;;;;;;5029722;28;20400;-81
2023/10/13 03:15:19;;;;;;;16.00;9.07;;;14.20;99.90;;;;;;5030425;28;20033;-79
2023/10/13 03:17:46;;;;;;;17.98;8.65;;;14.20;99.90;;;;;;5035154;28;20490;-81
2023/10/13 03:20:15;;;;;;;16.77;9.77;;;14.20;99.90;;;;;;5038350;28;20048;-80
2023/10/13 03:22:44;;;;;;;13.75;8.63;;;14.20;99.90;;;;;;5032698;28;20104;-81
2023/10/13 03:25:23;;;;;;;18.88;9.85;;;14.30;99.90;;;;;;5041347;28;20119;-81
2023/10/13 03:30:17;;;;;;;17.17;8.75;;;14.30;99.90;;;;;;5042510;28;20061;-80
2023/10/13 03:32:48;;;;;;;17.40;9.27;;;14.30;99.90;;;;;;5031725;28;20041;-80
2023/10/13 03:35:24;;;;;;;16.65;8.27;;;14.30;99.90;;;;;;5039508;28;20525;-80
2023/10/13 03:37:54;;;;;;;15.15;8.45;;;14.30;99.90;;;;;;5033902;28;20037;-80
2023/10/13 03:45:26;;;;;;;15.65;8.88;;;14.40;99.90;;;;;;5039803;28;20036;-81
2023/10/13 03:47:53;;;;;;;16.13;9.38;;;14.40;99.90;;;;;;5036812;28;20030;-80
2023/10/13 03:50:32;;;;;;;17.23;9.38;;;14.40;99.90;;;;;;5050233;28;20371;-80
2023/10/13 03:52:58;;;;;;;23.05;9.93;;;14.40;99.90;;;;;;5038809;28;20125;-79
2023/10/13 03:55:27;;;;;;;20.80;9.98;;;14.40;99.90;;;;;;5052256;28;20060;-80
2023/10/13 03:57:59;;;;;;;17.55;9.70;;;14.40;99.90;;;;;;5042035;28;20033;-81
2023/10/13 04:00:26;;;;;;;17.75;9.05;;;14.40;99.90;;;;;;5044830;28;20044;-81
2023/10/13 04:19:08;;;;;;;15.02;9.80;;;14.40;99.90;;;;;;5038387;28;20112;-80
2023/10/13 04:21:39;;;;;;;18.40;10.02;;;14.40;99.90;;;;;;5045708;28;20039;-80
2023/10/13 04:29:48;;;;;;;19.77;9.88;;;14.40;99.90;;;;;;5043470;28;20416;-80
2023/10/13 04:32:38;;;;;;;14.88;9.48;;;14.40;99.90;;;;;;5038894;28;20388;-80
2023/10/13 04:35:25;;;;;;;20.08;8.93;;;14.40;99.90;;;;;;5039958;28;20040;-80
2023/10/13 04:40:25;;;;;;;18.77;9.97;;;14.40;99.90;;;;;;5044413;28;20101;-80
2023/10/13 04:43:04;;;;;;;15.68;9.35;;;14.40;99.90;;;;;;5033246;28;20176;-80
2023/10/13 04:47:58;;;;;;;15.75;9.23;;;14.40;99.90;;;;;;5042482;28;20052;-81
2023/10/13 04:50:34;;;;;;;17.85;9.55;;;14.40;99.90;;;;;;5035657;28;20067;-81
2023/10/13 04:53:13;;;;;;;16.85;9.18;;;14.30;99.90;;;;;;5034345;28;20517;-80
2023/10/13 04:55:59;;;;;;;13.48;9.25;;;14.30;99.90;;;;;;5042828;28;20409;-81
2023/10/13 05:04:21;;;;;;;12.63;8.30;;;14.30;99.90;;;;;;5045611;28;20482;-79
2023/10/13 06:31:08;;;;;;;16.30;9.98;;;14.40;99.90;;;;;;5028988;28;20041;-80
2023/10/13 06:33:34;;;;;;;18.25;10.50;;;14.40;99.90;;;;;;5030541;28;20076;-80
2023/10/13 06:36:02;;;;;;;22.25;11.55;;;14.50;99.90;;;;;;5031995;28;20359;-80
2023/10/13 06:38:38;;;;;;;17.38;10.63;;;14.50;99.90;;;;;;5044462;28;20029;-80
2023/10/13 06:41:06;;;;;;;19.70;11.23;;;14.60;99.90;;;;;;5037218;28;20025;-80
2023/10/13 06:43:34;;;;;;;21.80;11.23;;;14.60;99.90;;;;;;5029745;28;20235;-80
2023/10/13 06:46:00;;;;;;;19.65;10.98;;;14.60;99.90;;;;;;5036188;28;20036;-80
2023/10/13 06:48:26;;;;;;;16.45;10.57;;;14.70;99.90;;;;;;5043825;28;20032;-81
2023/10/13 06:50:55;;;;;;;18.75;10.60;;;14.70;99.90;;;;;;5030046;28;20120;-82
2023/10/13 06:53:22;;;;;;;21.83;10.65;;;14.80;99.90;;;;;;5043550;28;20090;-81
2023/10/13 06:55:52;;;;;;;19.67;12.02;;;14.80;99.90;;;;;;5042422;28;20083;-80
2023/10/13 06:58:23;;;;;;;21.67;12.50;;;14.80;99.90;;;;;;5034909;28;20041;-81
2023/10/13 07:00:53;;;;;;;19.48;12.35;;;14.90;99.90;;;;;;5042456;28;20515;-81
2023/10/13 07:03:25;;;;;;;17.75;10.90;;;15.10;99.90;;;;;;5035737;28;20043;-79
2023/10/13 07:05:51;;;;;;;17.80;12.40;;;15.20;99.90;;;;;;5037655;28;20030;-83
2023/10/13 07:08:21;;;;;;;19.58;11.27;;;15.30;99.90;;;;;;5026707;28;20466;-81
2023/10/13 07:11:02;;;;;;;22.30;11.50;;;15.40;99.90;;;;;;5030636;28;20021;-82
2023/10/13 07:13:28;;;;;;;21.08;11.27;;;15.50;99.90;;;;;;5029819;28;20029;-80
2023/10/13 07:16:02;;;;;;;21.17;12.07;;;15.50;99.90;;;;;;5044554;28;20121;-79
2023/10/13 07:18:35;;;;;;;18.88;12.18;;;15.60;99.90;;;;;;5046607;28;20041;-80
2023/10/13 07:21:09;;;;;;;18.95;11.80;;;15.60;99.90;;;;;;5036318;28;20034;-80
2023/10/13 07:23:38;;;;;;;20.27;14.00;;;15.70;99.90;;;;;;5042626;28;20048;-80
2023/10/13 07:26:08;;;;;;;21.63;12.25;;;15.70;99.90;;;;;;5036943;28;20026;-79
2023/10/13 07:28:43;;;;;;;16.27;11.68;;;15.80;99.90;;;;;;5043633;28;20026;-79
2023/10/13 07:31:15;;;;;;;21.90;11.32;;;15.80;99.90;;;;;;5043460;28;20508;-79
2023/10/13 07:33:41;;;;;;;18.85;11.55;;;15.90;99.90;;;;;;5040720;28;20026;-78
2023/10/13 07:36:27;;;;;;;16.45;10.43;;;16.00;99.90;;;;;;5040016;28;20022;-80
2023/10/13 07:41:41;;;;;;;17.35;11.15;;;16.20;99.90;;;;;;5045799;28;20394;-79
2023/10/13 07:44:07;;;;;;;16.20;9.80;;;16.30;99.90;;;;;;5042399;28;20069;-79
2023/10/13 07:46:35;;;;;;;17.52;10.95;;;16.40;99.90;;;;;;5043995;28;20033;-78
2023/10/13 07:49:10;;;;;;;13.98;9.20;;;16.40;99.90;;;;;;5036947;28;20065;-78
2023/10/13 07:51:45;;;;;;;;;;;16.50;99.90;;;;;;5039232;28;20107;-79
2023/10/13 07:54:21;;;;;;;18.77;8.65;;;16.50;99.90;;;;;;5041618;28;19966;-80
2023/10/13 07:56:50;;;;;;;13.55;8.10;;;16.50;99.90;;;;;;5039386;28;20137;-79
2023/10/13 07:59:16;;;;;;;13.93;8.68;;;16.50;99.90;;;;;;5039017;28;20042;-79
2023/10/13 08:01:42;;;;;;;11.98;7.72;;;16.50;99.90;;;;;;5037632;28;20076;-78
2023/10/13 08:04:12;;;;;;;16.65;8.40;;;16.40;99.90;;;;;;5037306;28;20109;-80
2023/10/13 08:06:43;;;;;;;12.63;8.45;;;16.30;99.90;;;;;;5040726;28;20037;-80
2023/10/13 08:09:09;;;;;;;10.02;8.18;;;16.40;99.90;;;;;;5044090;28;20105;-79
2023/10/13 08:11:37;;;;;;;13.20;8.23;;;16.30;99.90;;;;;;5043516;28;20026;-79
2023/10/13 08:14:11;;;;;;;10.40;7.40;;;16.30;99.90;;;;;;5039791;28;20037;-78
2023/10/13 08:16:59;;;;;;;10.63;7.60;;;16.30;99.90;;;;;;5046419;28;20033;-80
2023/10/13 08:19:27;;;;;;;11.07;7.70;;;16.40;99.90;;;;;;5038508;28;20045;-79
2023/10/13 08:21:58;;;;;;;15.30;7.80;;;16.40;99.90;;;;;;5037926;28;20058;-78
2023/10/13 08:30:26;;;;;;;16.55;7.80;;;16.50;99.90;;;;;;5039309;28;20091;-79
2023/10/13 08:32:54;;;;;;;12.23;8.00;;;16.60;99.90;;;;;;5031396;28;20026;-78
2023/10/13 08:40:43;;;;;;;10.13;8.20;;;16.90;99.90;;;;;;5034000;28;20040;-79
2023/10/13 08:43:11;;;;;;;10.68;7.85;;;17.00;99.90;;;;;;5037774;28;20049;-78
2023/10/13 08:54:09;;;;;;;11.55;7.35;;;17.20;99.90;;;;;;5041331;28;20036;-80
2023/10/13 09:01:59;;;;;;;11.95;6.80;;;17.30;99.90;;;;;;5036793;28;20033;-79
2023/10/13 09:04:34;;;;;;;22.03;8.03;;;17.40;99.90;;;;;;5034908;28;20047;-78
2023/10/13 09:12:25;;;;;;;13.75;6.22;;;17.30;99.90;;;;;;5036507;28;20028;-80
2023/10/13 09:14:58;;;;;;;10.55;5.72;;;17.40;99.90;;;;;;5035985;28;20064;-79
2023/10/13 09:17:34;;;;;;;10.57;6.88;;;17.50;99.90;;;;;;5032608;28;20379;-78
2023/10/13 09:20:23;;;;;;;;;;;17.60;99.90;;;;;;5033609;28;20506;-78
2023/10/13 09:23:07;;;;;;;11.15;6.03;;;17.70;99.90;;;;;;5036262;28;19921;-78
2023/10/13 09:25:38;;;;;;;13.00;6.20;;;17.90;99.90;;;;;;5037791;28;20068;-78
2023/10/13 09:28:21;;;;;;;11.35;6.20;;;18.00;99.90;;;;;;5030337;28;20046;-79
2023/10/13 09:30:58;;;;;;;11.10;6.20;;;18.10;99.90;;;;;;5039302;28;20046;-79
2023/10/13 09:33:49;;;;;;;9.35;5.88;;;18.10;99.90;;;;;;5032419;28;20041;-79
2023/10/13 09:36:16;;;;;;;11.65;6.45;;;18.10;99.90;;;;;;5039555;28;20037;-79
2023/10/13 09:38:48;;;;;;;9.47;5.80;;;18.10;99.90;;;;;;5038353;28;20033;-78
2023/10/13 09:41:26;;;;;;;9.27;6.05;;;18.20;99.90;;;;;;5032136;28;20027;-78
2023/10/13 09:43:57;;;;;;;15.30;6.50;;;18.20;99.90;;;;;;5025731;28;20090;-77
2023/10/13 09:46:28;;;;;;;11.52;5.93;;;18.30;99.90;;;;;;5032429;28;20095;-79
2023/10/13 09:49:15;;;;;;;14.00;5.78;;;18.40;99.90;;;;;;5035969;28;20698;-80
2023/10/13 09:51:45;;;;;;;11.18;5.90;;;18.40;99.90;;;;;;5034977;28;20047;-79
2023/10/13 09:54:19;;;;;;;10.68;5.93;;;18.50;99.90;;;;;;5033204;28;20034;-78
2023/10/13 09:56:57;;;;;;;10.13;5.70;;;18.50;99.90;;;;;;5039996;28;20477;-78
2023/10/13 09:59:35;;;;;;;8.80;5.05;;;18.60;99.90;;;;;;5027021;28;20372;-77
2023/10/13 10:02:08;;;;;;;10.60;5.80;;;18.70;99.90;;;;;;5034012;28;20094;-78
2023/10/13 10:04:51;;;;;;;11.10;5.63;;;18.80;99.90;;;;;;5029335;28;20025;-81
2023/10/13 10:07:31;;;;;;;9.90;5.53;;;18.80;99.90;;;;;;5027778;28;20037;-78
2023/10/13 10:10:00;;;;;;;7.35;5.95;;;18.80;99.90;;;;;;5035497;28;20052;-79
2023/10/13 10:12:50;;;;;;;10.10;5.70;;;18.90;99.90;;;;;;5032590;28;20052;-78
2023/10/13 10:15:35;;;;;;;10.80;5.70;;;18.90;99.90;;;;;;5032530;28;20045;-78
2023/10/13 10:18:02;;;;;;;11.77;6.57;;;19.00;99.90;;;;;;5035697;28;20037;-79
2023/10/13 10:20:43;;;;;;;9.73;5.13;;;19.00;99.90;;;;;;5031799;28;20033;-78
2023/10/13 10:23:21;;;;;;;12.35;6.10;;;19.10;99.90;;;;;;5035741;28;20604;-79
2023/10/13 10:25:50;;;;;;;10.27;5.70;;;19.20;99.90;;;;;;5027569;28;20112;-79
2023/10/13 10:28:15;;;;;;;8.73;5.55;;;19.10;99.90;;;;;;5034305;28;20040;-79
2023/10/13 10:30:42;;;;;;;11.80;5.57;;;19.00;99.90;;;;;;5029396;28;20045;-77
2023/10/13 10:33:12;;;;;;;10.07;5.85;;;18.90;99.90;;;;;;5036789;28;20052;-78
2023/10/13 10:35:42;;;;;;;7.28;5.30;;;18.80;99.90;;;;;;5029550;28;20104;-78
2023/10/13 10:41:06;;;;;;;8.85;5.15;;;18.70;99.90;;;;;;5028789;28;20033;-78
2023/10/13 10:43:46;;;;;;;7.63;4.60;;;18.70;99.90;;;;;;5027183;28;20366;-80
2023/10/13 10:46:13;;;;;;;7.60;5.05;;;18.80;99.90;;;;;;5028659;28;20092;-78
2023/10/13 10:48:42;;;;;;;8.40;5.32;;;18.80;99.90;;;;;;5038322;28;20025;-78
2023/10/13 10:53:49;;;;;;;9.60;4.88;;;19.00;99.90;;;;;;5025341;28;20030;-77
2023/10/13 10:59:00;;;;;;;7.78;4.45;;;19.20;99.90;;;;;;5024758;28;20037;-77
2023/10/13 11:01:33;;;;;;;10.38;5.10;;;19.20;99.90;;;;;;5025640;28;20390;-79
2023/10/13 11:04:24;;;;;;;6.40;4.57;;;19.30;99.90;;;;;;5027900;28;20048;-78
2023/10/13 11:06:57;;;;;;;12.18;5.63;;;19.40;99.90;;;;;;5035042;28;20517;-79
2023/10/13 11:12:24;;;;;;;10.93;4.35;;;19.70;99.90;;;;;;5031685;28;20042;-80
2023/10/13 11:15:22;;;;;;;12.35;4.88;;;19.90;99.90;;;;;;5030092;28;20139;-77
2023/10/13 11:17:54;;;;;;;8.38;4.47;;;20.20;99.90;;;;;;5032399;28;20488;-78
2023/10/13 11:20:43;;;;;;;10.32;4.47;;;20.30;99.90;;;;;;5023407;28;20040;-78
2023/10/13 11:23:15;;;;;;;8.82;4.10;;;20.40;99.90;;;;;;5029992;28;20029;-79
2023/10/13 11:25:44;;;;;;;9.35;4.03;;;20.50;99.90;;;;;;5033199;28;20025;-78
2023/10/13 11:28:20;;;;;;;8.30;4.72;;;20.60;99.90;;;;;;5027579;28;20035;-76
2023/10/13 11:30:50;;;;;;;10.80;4.72;;;20.60;99.90;;;;;;5024342;28;20057;-76
2023/10/13 11:33:28;;;;;;;7.20;4.07;;;20.60;99.90;;;;;;5032697;28;20606;-79
2023/10/13 11:35:55;;;;;;;8.23;4.80;;;20.60;99.90;;;;;;5024556;28;20386;-77
2023/10/13 11:38:26;;;;;;;6.32;4.53;;;20.60;99.90;;;;;;5027291;28;20041;-75
2023/10/13 11:41:07;;;;;;;7.05;4.07;;;20.60;99.90;;;;;;5027416;28;20029;-76
2023/10/13 11:48:36;;;;;;;6.22;4.63;;;20.60;99.90;;;;;;5027772;28;20424;-77
2023/10/13 11:51:23;;;;;;;8.68;4.47;;;20.70;99.90;;;;;;5033899;28;20040;-75
2023/10/13 11:53:53;;;;;;;9.13;4.78;;;20.80;99.90;;;;;;5019597;28;20029;-76
2023/10/13 11:56:24;;;;;;;7.70;4.20;;;20.80;99.90;;;;;;5021904;28;20053;-76
2023/10/13 11:58:50;;;;;;;8.05;4.38;;;20.90;99.90;;;;;;5025561;28;20042;-76
2023/10/13 12:04:30;;;;;;;7.72;4.10;;;21.00;99.90;;;;;;5028478;28;20573;-76
2023/10/13 12:07:14;;;;;;;10.15;4.50;;;21.00;99.90;;;;;;5026148;28;20112;-75
2023/10/13 12:12:30;;;;;;;7.05;4.50;;;20.80;99.90;;;;;;5025889;28;20025;-76
2023/10/13 12:14:56;;;;;;;9.13;3.78;;;20.90;99.90;;;;;;5034768;28;20033;-77
2023/10/13 12:17:25;;;;;;;5.38;3.83;;;20.90;99.90;;;;;;5035237;28;20032;-76
2023/10/13 12:19:58;;;;;;;6.38;4.18;;;21.00;99.90;;;;;;5034333;28;20370;-77
2023/10/13 12:22:28;;;;;;;6.82;4.05;;;21.10;99.90;;;;;;5033740;28;20076;-76
2023/10/13 12:24:55;;;;;;;7.80;4.47;;;21.10;99.90;;;;;;5037419;28;20114;-76
2023/10/13 12:27:34;;;;;;;6.60;3.97;;;21.10;99.90;;;;;;5036855;28;20040;-76
2023/10/13 12:30:07;;;;;;;9.95;4.47;;;21.20;99.90;;;;;;5030917;28;20172;-76
2023/10/13 12:32:34;;;;;;;11.15;4.07;;;21.20;99.90;;;;;;5034483;28;20056;-77
2023/10/13 12:35:27;;;;;;;8.38;4.05;;;21.20;99.90;;;;;;5030800;28;20120;-76
2023/10/13 12:38:16;;;;;;;11.30;4.38;;;21.30;99.90;;;;;;5029071;28;20571;-76
2023/10/13 12:48:58;;;;;;;6.13;3.60;;;21.70;99.90;;;;;;5027129;28;20033;-76
2023/10/13 12:51:40;;;;;;;6.38;3.47;;;21.80;99.90;;;;;;5035859;28;20033;-76
2023/10/13 12:54:19;;;;;;;7.60;4.53;;;21.90;99.90;;;;;;5037701;28;20029;-75
2023/10/13 12:56:46;;;;;;;5.20;3.70;;;22.00;99.90;;;;;;5031991;28;20109;-75
2023/10/13 12:59:15;;;;;;;8.75;4.10;;;22.10;99.90;;;;;;5029562;28;20111;-76
2023/10/13 13:01:44;;;;;;;8.75;3.45;;;22.10;99.90;;;;;;5032864;28;20024;-75
2023/10/13 13:04:20;;;;;;;11.00;4.22;;;22.20;99.90;;;;;;5029703;28;20014;-77
2023/10/13 13:06:46;;;;;;;8.13;4.63;;;22.20;99.90;;;;;;5027188;28;20100;-76
2023/10/13 13:09:12;;;;;;;8.13;3.80;;;22.20;99.90;;;;;;5036632;28;20043;-76
2023/10/13 13:11:39;;;;;;;6.57;3.55;;;22.20;99.90;;;;;;5033983;28;20389;-76
2023/10/13 13:14:29;;;;;;;8.00;3.45;;;22.20;99.90;;;;;;5032766;28;20049;-76
2023/10/13 13:17:05;;;;;;;7.50;4.30;;;22.10;99.90;;;;;;5030515;28;20120;-76
2023/10/13 13:19:41;;;;;;;10.43;3.70;;;21.90;99.90;;;;;;5030951;28;20037;-76
2023/10/13 13:22:15;;;;;;;8.43;4.55;;;21.80;99.90;;;;;;5031883;28;20038;-76
2023/10/13 13:24:46;;;;;;;10.27;3.30;;;21.70;99.90;;;;;;5035020;28;20159;-76
2023/10/13 13:27:13;;;;;;;6.70;3.42;;;21.60;99.90;;;;;;5034516;28;21301;-78
2023/10/13 13:29:42;;;;;;;5.50;3.38;;;21.50;99.90;;;;;;5021100;28;20060;-77
2023/10/13 13:32:17;;;;;;;9.52;3.60;;;21.40;99.90;;;;;;5026267;28;20698;-77
2023/10/13 13:34:44;;;;;;;8.48;3.85;;;21.30;99.90;;;;;;5024850;28;20112;-77
2023/10/13 13:37:12;;;;;;;6.53;3.72;;;21.20;99.90;;;;;;5028651;28;20048;-77
2023/10/13 13:39:44;;;;;;;8.50;3.50;;;21.10;99.90;;;;;;5033529;28;20033;-77
2023/10/13 13:42:10;;;;;;;7.32;3.72;;;21.10;99.90;;;;;;5035583;28;20033;-76
2023/10/13 13:44:38;;;;;;;9.23;3.60;;;21.00;99.90;;;;;;5034162;28;20036;-77
2023/10/13 13:47:11;;;;;;;10.13;4.07;;;20.90;99.90;;;;;;5034012;28;20029;-76
2023/10/13 13:49:46;;;;;;;8.02;3.75;;;20.90;99.90;;;;;;5031162;28;20088;-76
2023/10/13 13:52:17;;;;;;;7.28;3.70;;;20.80;99.90;;;;;;5033802;28;20040;-77
2023/10/13 13:54:44;;;;;;;7.10;4.10;;;20.80;99.90;;;;;;5026650;28;20094;-77
2023/10/13 13:57:10;;;;;;;9.13;3.38;;;20.70;99.90;;;;;;5024641;28;20017;-78
2023/10/13 13:59:36;;;;;;;6.07;4.05;;;20.70;99.90;;;;;;5027100;28;20588;-76
2023/10/13 14:02:19;;;;;;;12.60;3.75;;;20.60;99.90;;;;;;5023078;28;20033;-76
2023/10/13 14:04:50;;;;;;;8.07;3.63;;;20.60;99.90;;;;;;5031156;28;20029;-77
2023/10/13 14:07:19;;;;;;;5.35;3.63;;;20.60;99.90;;;;;;5030751;28;20030;-75
2023/10/13 14:09:51;;;;;;;6.55;3.38;;;20.50;99.90;;;;;;5031754;28;20047;-75
2023/10/13 14:12:36;;;;;;;7.03;3.53;;;20.50;99.90;;;;;;5033216;28;20041;-76
2023/10/13 14:15:02;;;;;;;5.33;3.57;;;20.50;99.90;;;;;;5026963;28;20113;-75
2023/10/13 14:17:35;;;;;;;7.88;3.65;;;20.50;99.90;;;;;;5033698;28;20037;-76
2023/10/13 14:20:14;;;;;;;8.70;3.63;;;20.40;99.90;;;;;;5029745;28;20057;-76
2023/10/13 14:22:41;;;;;;;7.93;3.47;;;20.40;99.90;;;;;;5033386;28;20029;-77
2023/10/13 14:25:09;;;;;;;7.90;3.63;;;20.40;99.90;;;;;;5032758;28;20036;-78
2023/10/13 14:27:35;;;;;;;7.85;3.53;;;20.40;99.90;;;;;;5035401;28;20032;-76
2023/10/13 14:30:04;;;;;;;7.22;3.53;;;20.30;99.90;;;;;;5041943;28;20091;-78
2023/10/13 14:32:31;;;;;;;5.57;3.50;;;20.30;99.90;;;;;;5032783;28;20029;-75
2023/10/13 14:34:57;;;;;;;7.20;3.38;;;20.20;99.90;;;;;;5025706;28;20706;-77
2023/10/13 14:37:26;;;;;;;10.32;5.25;;;20.20;99.90;;;;;;5039732;28;20037;-77
2023/10/13 14:39:56;;;;;;;7.35;3.70;;;20.20;99.90;;;;;;5031270;28;20026;-78
2023/10/13 14:42:26;;;;;;;9.10;3.50;;;20.20;99.90;;;;;;5033892;28;20033;-78
2023/10/13 14:44:55;;;;;;;5.68;3.25;;;20.20;99.90;;;;;;5039203;28;20025;-78
2023/10/13 14:47:24;;;;;;;6.47;3.58;;;20.20;99.90;;;;;;5040956;28;20613;-77
2023/10/13 14:50:03;;;;;;;6.82;4.03;;;20.10;99.90;;;;;;5031744;28;20052;-78
2023/10/13 14:52:31;;;;;;;7.05;3.38;;;20.10;99.90;;;;;;5037133;28;20045;-77
2023/10/13 14:54:58;;;;;;;8.15;3.22;;;20.10;99.90;;;;;;5038060;28;20041;-77
2023/10/13 14:57:24;;;;;;;7.70;3.70;;;20.10;99.90;;;;;;5034629;28;20040;-77
2023/10/13 14:59:54;;;;;;;7.45;3.42;;;20.10;99.90;;;;;;5037555;28;20045;-77
2023/10/13 15:02:20;;;;;;;7.82;3.60;;;20.10;99.90;;;;;;5025976;28;20021;-77
2023/10/13 15:04:50;;;;;;;7.82;3.50;;;20.10;99.90;;;;;;5033297;28;20025;-77
2023/10/13 15:07:18;;;;;;;8.75;3.42;;;20.10;99.90;;;;;;5028998;28;20022;-77
2023/10/13 15:09:44;;;;;;;9.88;3.40;;;20.10;99.90;;;;;;5027961;28;20048;-76
2023/10/13 15:12:11;;;;;;;5.30;3.67;;;20.10;99.90;;;;;;5051634;28;20025;-78
2023/10/13 15:14:39;;;;;;;8.55;3.30;;;20.10;99.90;;;;;;5028500;28;20025;-78
2023/10/13 15:17:06;;;;;;;8.57;3.10;;;20.00;99.90;;;;;;5030479;28;20494;-76
2023/10/13 15:19:35;;;;;;;5.72;3.25;;;20.00;99.90;;;;;;5029334;28;20038;-77
2023/10/13 15:22:05;;;;;;;7.72;3.30;;;20.00;99.90;;;;;;5022293;28;20526;-76
2023/10/13 15:24:36;;;;;;;9.18;3.58;;;20.00;99.90;;;;;;5025154;28;20082;-76
2023/10/13 15:27:02;;;;;;;6.45;2.90;;;20.00;99.90;;;;;;5031268;28;20429;-76
2023/10/13 15:29:35;;;;;;;6.90;3.80;;;20.00;99.90;;;;;;5025946;28;20056;-76
2023/10/13 15:34:28;;;;;;;15.05;8.75;;;20.20;99.90;;;;;;5028903;28;20041;-76
2023/10/13 15:36:55;;;;;;;11.98;4.60;;;20.20;99.90;;;;;;5031434;28;20033;-76
2023/10/13 15:39:28;;;;;;;5.50;3.40;;;20.20;99.90;;;;;;5035698;28;20041;-78
2023/10/13 15:41:58;;;;;;;6.55;3.05;;;20.20;99.90;;;;;;5019340;28;20030;-77
2023/10/13 15:44:29;;;;;;;9.52;3.13;;;20.10;99.90;;;;;;5029264;28;20032;-77
2023/10/13 15:46:56;;;;;;;10.63;3.45;;;20.00;99.90;;;;;;5035769;28;20032;-77
2023/10/13 15:49:43;;;;;;;7.30;2.88;;;20.00;99.90;;;;;;5035402;28;20048;-76
2023/10/13 15:52:09;;;;;;;6.50;3.55;;;19.90;99.90;;;;;;5031736;28;20037;-76
2023/10/13 15:54:35;;;;;;;9.95;3.33;;;19.80;99.90;;;;;;5035663;28;20112;-76
2023/10/13 15:57:01;;;;;;;8.25;3.42;;;19.70;99.90;;;;;;5029914;28;20179;-77
2023/10/13 15:59:27;;;;;;;7.70;3.90;;;19.60;99.90;;;;;;5031538;28;20433;-77
2023/10/13 16:01:57;;;;;;;6.50;3.50;;;19.50;99.90;;;;;;5029875;28;20696;-78
2023/10/13 16:04:23;;;;;;;4.75;2.75;;;19.50;99.90;;;;;;5028442;28;20029;-77
2023/10/13 16:06:52;;;;;;;5.95;3.50;;;19.40;99.90;;;;;;5027160;28;20667;-77
2023/10/13 16:09:24;;;;;;;8.23;3.50;;;19.30;99.90;;;;;;5038538;28;20725;-77
2023/10/13 16:11:50;;;;;;;4.75;3.00;;;19.40;99.90;;;;;;5030222;28;20485;-76